createdAt,value
2022-11-24T00:01:03.071Z,6.21
2022-11-24T00:04:07.953Z,6.17
2022-11-24T00:07:10.451Z,6.20
2022-11-24T00:10:13.766Z,6.17
2022-11-24T00:13:16.189Z,6.18
2022-11-24T00:16:20.442Z,6.16
2022-11-24T00:19:24.342Z,6.04
2022-11-24T00:22:26.824Z,6.13
2022-11-24T00:25:29.247Z,6.11
2022-11-24T00:28:32.981Z,6.07
2022-11-24T00:31:37.236Z,6.22
2022-11-24T00:34:42.015Z,6.14
2022-11-24T00:37:44.455Z,6.18
2022-11-24T00:40:49.046Z,6.22
2022-11-24T00:43:52.074Z,6.17
2022-11-24T00:46:54.591Z,6.23
2022-11-24T00:49:58.399Z,6.31
2022-11-24T00:53:01.480Z,6.31
2022-11-24T00:56:04.175Z,6.30
2022-11-24T00:59:06.742Z,6.29
2022-11-24T01:02:09.212Z,6.23
2022-11-24T01:05:13.215Z,6.39
2022-11-24T01:08:15.663Z,6.39
2022-11-24T01:11:20.860Z,6.48
2022-11-24T01:14:24.804Z,6.45
2022-11-24T01:17:27.544Z,6.44
2022-11-24T01:20:32.018Z,6.47
2022-11-24T01:23:34.471Z,6.51
2022-11-24T01:26:37.701Z,6.50
2022-11-24T01:29:40.221Z,6.43
2022-11-24T01:32:42.648Z,6.51
2022-11-24T01:35:46.471Z,6.52
2022-11-24T01:38:49.389Z,6.52
2022-11-24T01:41:52.866Z,6.54
2022-11-24T01:45:28.726Z,6.60
2022-11-24T01:48:38.703Z,6.56
2022-11-24T01:51:48.794Z,6.58
2022-11-24T01:54:55.655Z,6.55
2022-11-24T01:58:03.076Z,6.57
2022-11-24T02:01:05.990Z,6.58
2022-11-24T02:04:13.938Z,6.53
2022-11-24T02:07:18.527Z,6.48
2022-11-24T02:10:21.947Z,6.44
2022-11-24T02:13:25.146Z,6.46
2022-11-24T02:16:27.682Z,6.45
2022-11-24T02:19:43.024Z,6.49
2022-11-24T02:22:53.703Z,6.49
2022-11-24T02:26:07.802Z,6.47
2022-11-24T02:29:13.022Z,6.47
2022-11-24T02:32:16.455Z,6.44
2022-11-24T02:35:19.308Z,6.50
2022-11-24T02:38:30.033Z,6.42
2022-11-24T02:41:32.628Z,6.33
2022-11-24T02:44:40.737Z,6.34
2022-11-24T02:47:43.781Z,6.32
2022-11-24T02:50:46.316Z,6.32
2022-11-24T02:53:48.776Z,6.35
2022-11-24T02:56:51.359Z,6.32
2022-11-24T02:59:55.203Z,6.38
2022-11-24T03:02:58.038Z,6.30
2022-11-24T03:06:00.494Z,6.40
2022-11-24T03:09:03.067Z,6.40
2022-11-24T03:12:06.230Z,6.36
2022-11-24T03:15:11.283Z,6.36
2022-11-24T03:18:13.771Z,6.39
2022-11-24T03:21:16.220Z,6.35
2022-11-24T03:24:18.978Z,6.43
2022-11-24T03:27:21.428Z,6.41
2022-11-24T03:30:25.257Z,6.40
2022-11-24T03:33:27.880Z,6.33
2022-11-24T03:36:30.307Z,6.31
2022-11-24T03:39:32.991Z,6.23
2022-11-24T03:42:35.377Z,6.38
2022-11-24T03:45:45.827Z,6.44
2022-11-24T03:48:48.623Z,6.45
2022-11-24T03:51:51.055Z,6.40
2022-11-24T03:54:53.710Z,6.34
2022-11-24T03:57:56.159Z,6.35
2022-11-24T04:00:59.964Z,6.45
2022-11-24T04:04:03.516Z,6.53
2022-11-24T04:07:05.927Z,6.54
2022-11-24T04:10:08.689Z,6.54
2022-11-24T04:13:13.063Z,6.56
2022-11-24T04:16:16.845Z,6.61
2022-11-24T04:19:19.473Z,6.61
2022-11-24T04:22:22.072Z,6.71
2022-11-24T04:25:24.573Z,6.70
2022-11-24T04:28:27.082Z,6.68
2022-11-24T04:31:31.668Z,6.60
2022-11-24T04:34:34.556Z,6.66
2022-11-24T04:37:37.380Z,6.70
2022-11-24T04:40:39.919Z,6.68
2022-11-24T04:43:42.338Z,6.63
2022-11-24T04:46:46.460Z,6.57
2022-11-24T04:49:49.230Z,6.59
2022-11-24T04:52:52.565Z,6.68
2022-11-24T04:55:54.996Z,6.73
2022-11-24T04:58:57.502Z,6.65
2022-11-24T05:02:01.349Z,6.66
2022-11-24T05:05:04.418Z,6.57
2022-11-24T05:08:06.845Z,6.63
2022-11-24T05:11:09.543Z,6.70
2022-11-24T05:14:11.980Z,6.68
2022-11-24T05:17:15.732Z,6.78
2022-11-24T05:20:18.656Z,6.74
2022-11-24T05:23:21.218Z,6.80
2022-11-24T05:26:23.707Z,6.84
2022-11-24T05:29:26.139Z,6.69
2022-11-24T05:32:29.985Z,6.65
2022-11-24T05:35:32.663Z,6.65
2022-11-24T05:38:35.692Z,6.71
2022-11-24T05:41:38.438Z,6.76
2022-11-24T05:44:40.823Z,6.77
2022-11-24T05:47:45.128Z,6.79
2022-11-24T05:50:53.528Z,6.72
2022-11-24T05:53:56.187Z,6.69
2022-11-24T05:56:58.902Z,6.63
2022-11-24T06:00:02.253Z,6.58
2022-11-24T06:03:16.210Z,6.56
2022-11-24T06:06:18.706Z,6.60
2022-11-24T06:09:21.208Z,6.58
2022-11-24T06:12:23.702Z,6.58
2022-11-24T06:15:26.185Z,6.50
2022-11-24T06:18:30.015Z,6.47
2022-11-24T06:21:32.576Z,6.51
2022-11-24T06:24:35.187Z,6.45
2022-11-24T06:27:37.777Z,6.46
2022-11-24T06:30:40.290Z,6.41
2022-11-24T06:33:44.385Z,6.36
2022-11-24T06:36:47.070Z,6.33
2022-11-24T06:39:49.584Z,6.23
2022-11-24T06:42:52.707Z,6.32
2022-11-24T06:45:55.480Z,6.28
2022-11-24T06:49:02.525Z,6.38
2022-11-24T06:52:05.224Z,6.39
2022-11-24T06:55:09.783Z,6.46
2022-11-24T06:58:12.391Z,6.49
2022-11-24T07:01:33.555Z,6.53
2022-11-24T07:04:37.667Z,6.50
2022-11-24T07:07:41.015Z,6.61
2022-11-24T07:10:43.605Z,6.62
2022-11-24T07:13:56.679Z,6.64
2022-11-24T07:21:18.239Z,6.50
2022-11-24T07:24:27.095Z,6.52
2022-11-24T07:32:05.066Z,6.52
2022-11-24T07:36:23.630Z,6.34
2022-11-24T07:39:26.004Z,6.49
2022-11-24T07:42:31.168Z,6.58
2022-11-24T07:45:33.750Z,6.55
2022-11-24T07:48:36.487Z,6.64
2022-11-24T07:51:39.183Z,6.56
2022-11-24T07:54:42.995Z,6.58
2022-11-24T07:57:45.493Z,6.45
2022-11-24T08:00:56.572Z,6.37
2022-11-24T08:04:01.420Z,6.24
2022-11-24T08:07:05.689Z,6.27
2022-11-24T08:10:10.260Z,6.23
2022-11-24T08:13:12.765Z,6.25
2022-11-24T08:16:17.495Z,6.20
2022-11-24T08:19:21.693Z,6.17
2022-11-24T08:22:24.433Z,6.13
2022-11-24T08:25:32.554Z,6.10
2022-11-24T08:28:35.842Z,6.02
2022-11-24T08:31:39.171Z,5.95
2022-11-24T08:34:41.737Z,5.93
2022-11-24T08:37:44.365Z,5.90
2022-11-24T08:40:48.381Z,5.88
2022-11-24T08:43:51.227Z,5.85
2022-11-24T08:46:54.136Z,5.90
2022-11-24T08:49:56.731Z,5.91
2022-11-24T08:52:59.273Z,5.90
2022-11-24T08:56:04.372Z,5.95
2022-11-24T08:59:06.947Z,5.95
2022-11-24T09:02:15.422Z,5.95
2022-11-24T09:05:49.999Z,5.90
2022-11-24T09:08:40.745Z,5.94
2022-11-24T09:11:46.623Z,5.94
2022-11-24T09:14:52.201Z,6.02
2022-11-24T09:17:54.983Z,6.09
2022-11-24T09:21:06.927Z,6.14
2022-11-24T09:24:10.736Z,6.12
2022-11-24T09:27:14.734Z,6.15
2022-11-24T09:30:18.527Z,6.22
2022-11-24T09:33:21.853Z,6.33
2022-11-24T09:36:25.473Z,6.42
2022-11-24T09:39:27.955Z,6.40
2022-11-24T09:42:39.757Z,6.49
2022-11-24T09:46:04.906Z,6.44
2022-11-24T09:49:15.488Z,6.58
2022-11-24T09:52:22.391Z,6.54
2022-11-24T09:55:35.480Z,6.58
2022-11-24T09:58:45.258Z,6.67
2022-11-24T10:01:49.866Z,6.73
2022-11-24T10:04:54.776Z,6.79
2022-11-24T10:08:09.383Z,6.87
2022-11-24T10:11:18.834Z,6.92
2022-11-24T10:14:46.076Z,6.96
2022-11-24T10:18:09.360Z,7.02
2022-11-24T10:21:34.815Z,6.99
2022-11-24T10:25:03.171Z,6.98
2022-11-24T10:28:12.499Z,6.97
2022-11-24T10:31:29.642Z,7.05
2022-11-24T10:34:35.291Z,7.14
2022-11-24T10:37:45.820Z,6.99
2022-11-24T10:40:59.612Z,7.09
2022-11-24T10:44:04.892Z,6.98
2022-11-24T10:47:18.034Z,7.02
2022-11-24T10:50:25.277Z,7.07
2022-11-24T10:53:48.305Z,6.93
2022-11-24T10:56:53.068Z,6.86
2022-11-24T10:59:56.436Z,6.87
2022-11-24T11:03:17.459Z,6.89
2022-11-24T11:06:22.816Z,6.82
2022-11-24T11:09:25.423Z,6.74
2022-11-24T11:12:45.714Z,6.76
2022-11-24T11:15:48.471Z,6.80
2022-11-24T11:18:53.055Z,6.83
2022-11-24T11:22:01.222Z,6.85
2022-11-24T11:25:18.725Z,6.92
2022-11-24T11:28:28.507Z,6.84
2022-11-24T11:31:34.401Z,6.87
2022-11-24T11:34:38.776Z,6.86
2022-11-24T11:37:42.287Z,6.92
2022-11-24T11:40:47.473Z,6.92
2022-11-24T11:43:57.474Z,6.93
2022-11-24T11:47:05.685Z,7.00
2022-11-24T11:50:16.172Z,7.00
2022-11-24T11:53:27.591Z,7.01
2022-11-24T11:56:33.291Z,7.04
2022-11-24T11:59:51.389Z,7.03
2022-11-24T12:03:19.521Z,7.00
2022-11-24T12:06:36.512Z,7.03
2022-11-24T12:09:56.447Z,7.09
2022-11-24T12:13:10.276Z,7.12
2022-11-24T12:16:25.210Z,7.22
2022-11-24T12:19:38.604Z,7.34
2022-11-24T12:22:49.841Z,7.33
2022-11-24T12:26:00.394Z,7.40
2022-11-24T12:29:24.010Z,7.39
2022-11-24T12:32:41.791Z,7.60
2022-11-24T12:35:46.567Z,7.53
2022-11-24T12:38:58.331Z,7.55
2022-11-24T12:42:09.911Z,7.49
2022-11-24T12:45:16.985Z,7.53
2022-11-24T12:48:32.670Z,7.58
2022-11-24T12:51:38.111Z,7.65
2022-11-24T12:54:42.200Z,7.60
2022-11-24T12:57:52.048Z,7.62
2022-11-24T13:01:14.676Z,7.78
2022-11-24T13:04:32.964Z,7.73
2022-11-24T13:07:42.871Z,7.89
2022-11-24T13:10:57.211Z,7.95
2022-11-24T13:14:04.696Z,8.02
2022-11-24T13:17:41.996Z,8.02
2022-11-24T13:20:47.486Z,8.05
2022-11-24T13:23:56.650Z,7.98
2022-11-24T13:27:41.334Z,7.99
2022-11-24T13:31:07.361Z,7.99
2022-11-24T13:34:43.099Z,7.99
2022-11-24T13:37:51.455Z,7.92
2022-11-24T13:41:13.304Z,7.89
2022-11-24T13:44:25.498Z,7.93
2022-11-24T13:47:36.705Z,7.95
2022-11-24T13:51:17.302Z,7.91
2022-11-24T13:54:21.294Z,7.89
2022-11-24T13:57:34.083Z,7.96
2022-11-24T14:01:11.490Z,7.95
2022-11-24T14:04:34.974Z,7.85
2022-11-24T14:07:37.693Z,7.95
2022-11-24T14:10:43.044Z,7.89
2022-11-24T14:13:45.502Z,7.83
2022-11-24T14:16:49.311Z,7.71
2022-11-24T14:19:54.106Z,7.69
2022-11-24T14:22:56.624Z,7.59
2022-11-24T14:25:59.127Z,7.50
2022-11-24T14:29:07.085Z,7.45
2022-11-24T14:32:16.860Z,7.45
2022-11-24T14:35:22.779Z,7.50
2022-11-24T14:38:25.522Z,7.47
2022-11-24T14:41:28.507Z,7.44
2022-11-24T14:44:35.155Z,7.36
2022-11-24T14:47:45.181Z,7.38
2022-11-24T14:50:47.908Z,7.23
2022-11-24T14:53:53.110Z,7.23
2022-11-24T14:56:57.848Z,7.21
2022-11-24T15:00:17.134Z,7.14
2022-11-24T15:03:20.932Z,7.09
2022-11-24T15:06:23.750Z,7.08
2022-11-24T15:09:31.356Z,7.04
2022-11-24T15:12:40.738Z,6.94
2022-11-24T15:15:48.367Z,6.82
2022-11-24T15:18:59.225Z,6.77
2022-11-24T15:22:26.841Z,6.73
2022-11-24T15:25:32.469Z,6.67
2022-11-24T15:28:37.766Z,6.66
2022-11-24T15:31:44.192Z,6.64
2022-11-24T15:34:51.619Z,6.58
2022-11-24T15:37:54.148Z,6.53
2022-11-24T15:40:59.589Z,6.41
2022-11-24T15:44:02.080Z,6.40
2022-11-24T15:47:04.604Z,6.41
2022-11-24T15:50:09.928Z,6.32
2022-11-24T15:53:18.216Z,6.32
2022-11-24T15:56:24.376Z,6.32
2022-11-24T15:59:27.044Z,6.27
2022-11-24T16:02:29.600Z,6.18
2022-11-24T16:05:33.719Z,6.16
2022-11-24T16:08:36.110Z,6.21
2022-11-24T16:11:38.748Z,6.21
2022-11-24T16:14:41.309Z,6.19
2022-11-24T16:17:43.803Z,6.20
2022-11-24T16:20:47.746Z,6.18
2022-11-24T16:23:50.264Z,6.13
2022-11-24T16:26:52.758Z,6.13
2022-11-24T16:29:55.247Z,6.11
2022-11-24T16:32:57.725Z,6.19
2022-11-24T16:36:01.516Z,6.15
2022-11-24T16:39:04.240Z,6.17
2022-11-24T16:42:06.939Z,6.11
2022-11-24T16:45:11.732Z,6.06
2022-11-24T16:48:14.223Z,6.09
2022-11-24T16:51:19.599Z,6.11
2022-11-24T16:54:22.239Z,6.17
2022-11-24T16:57:24.656Z,6.15
2022-11-24T17:00:27.392Z,6.34
2022-11-24T17:03:30.695Z,6.27
2022-11-24T17:06:35.127Z,6.17
2022-11-24T17:09:40.756Z,6.08
2022-11-24T17:12:44.837Z,6.06
2022-11-24T17:15:52.553Z,5.97
2022-11-24T17:18:58.589Z,5.93
2022-11-24T17:22:02.651Z,5.88
2022-11-24T17:25:06.283Z,5.80
2022-11-24T17:28:08.863Z,5.71
2022-11-24T17:31:18.149Z,5.53
2022-11-24T17:34:21.088Z,5.65
2022-11-24T17:37:25.015Z,5.45
2022-11-24T17:40:29.425Z,5.44
2022-11-24T17:43:32.687Z,5.37
2022-11-24T17:46:37.079Z,5.31
2022-11-24T17:49:40.351Z,5.24
2022-11-24T17:52:44.206Z,5.15
2022-11-24T17:55:46.860Z,5.09
2022-11-24T17:58:54.213Z,5.06
2022-11-24T18:01:58.082Z,5.04
2022-11-24T18:05:00.648Z,4.97
2022-11-24T18:08:05.079Z,4.89
2022-11-24T18:11:09.612Z,4.82
2022-11-24T18:14:12.745Z,4.79
2022-11-24T18:17:15.534Z,4.83
2022-11-24T18:20:19.419Z,4.71
2022-11-24T18:23:24.227Z,4.62
2022-11-24T18:26:26.900Z,4.72
2022-11-24T18:29:31.645Z,4.58
2022-11-24T18:32:34.230Z,4.49
2022-11-24T18:35:39.629Z,4.52
2022-11-24T18:38:44.449Z,4.41
2022-11-24T18:41:47.236Z,4.34
2022-11-24T18:44:53.973Z,4.32
2022-11-24T18:47:56.971Z,4.41
2022-11-24T18:50:59.495Z,4.51
2022-11-24T18:54:05.342Z,4.50
2022-11-24T18:57:08.228Z,4.42
2022-11-24T19:00:12.464Z,4.37
2022-11-24T19:03:15.185Z,4.29
2022-11-24T19:06:20.185Z,4.22
2022-11-24T19:09:25.513Z,4.22
2022-11-24T19:12:28.361Z,4.17
2022-11-24T19:15:32.901Z,4.13
2022-11-24T19:18:35.655Z,4.08
2022-11-24T19:21:40.424Z,4.04
2022-11-24T19:24:46.549Z,3.93
2022-11-24T19:27:49.371Z,3.98
2022-11-24T19:30:52.068Z,3.84
2022-11-24T19:33:57.924Z,3.88
2022-11-24T19:37:00.637Z,3.95
2022-11-24T19:40:06.396Z,3.90
2022-11-24T19:43:09.102Z,3.88
2022-11-24T19:46:14.310Z,3.81
2022-11-24T19:49:16.824Z,3.82
2022-11-24T19:52:19.822Z,3.78
2022-11-24T19:55:23.871Z,3.82
2022-11-24T19:58:26.450Z,3.82
2022-11-24T20:01:31.597Z,3.79
2022-11-24T20:04:38.280Z,3.84
2022-11-24T20:07:41.106Z,3.71
2022-11-24T20:10:45.408Z,3.64
2022-11-24T20:13:49.760Z,3.73
2022-11-24T20:16:52.238Z,3.82
2022-11-24T20:19:54.989Z,3.77
2022-11-24T20:22:57.600Z,3.77
2022-11-24T20:26:05.530Z,3.75
2022-11-24T20:29:13.011Z,3.70
2022-11-24T20:32:19.491Z,3.66
2022-11-24T20:35:22.415Z,3.52
2022-11-24T20:38:24.894Z,3.57
2022-11-24T20:41:30.900Z,3.39
2022-11-24T20:44:33.741Z,3.38
2022-11-24T20:47:36.720Z,3.37
2022-11-24T20:50:39.470Z,3.36
2022-11-24T20:53:42.396Z,3.25
2022-11-24T20:56:47.815Z,3.31
2022-11-24T20:59:52.300Z,3.26
2022-11-24T21:02:57.640Z,3.19
2022-11-24T21:06:00.982Z,3.18
2022-11-24T21:09:04.944Z,3.19
2022-11-24T21:12:09.072Z,3.37
2022-11-24T21:15:11.638Z,3.50
2022-11-24T21:18:14.433Z,3.44
2022-11-24T21:21:19.572Z,3.32
2022-11-24T21:24:22.183Z,3.21
2022-11-24T21:27:27.082Z,3.13
2022-11-24T21:30:29.859Z,3.18
2022-11-24T21:33:32.897Z,3.24
2022-11-24T21:36:35.820Z,3.27
2022-11-24T21:39:38.307Z,3.27
2022-11-24T21:42:42.161Z,3.25
2022-11-24T21:45:44.609Z,3.20
2022-11-24T21:48:47.095Z,3.03
2022-11-24T21:51:55.172Z,2.86
2022-11-24T21:54:57.782Z,2.79
2022-11-24T21:58:01.557Z,2.82
2022-11-24T22:01:06.267Z,2.86
2022-11-24T22:04:09.490Z,2.83
2022-11-24T22:07:12.665Z,2.84
2022-11-24T22:10:15.377Z,2.74
2022-11-24T22:13:19.450Z,2.71
2022-11-24T22:16:24.734Z,2.79
2022-11-24T22:19:27.267Z,2.69
2022-11-24T22:22:29.703Z,2.57
2022-11-24T22:25:33.478Z,2.59
2022-11-24T22:28:37.872Z,2.51
2022-11-24T22:31:40.368Z,2.50
2022-11-24T22:34:42.866Z,2.47
2022-11-24T22:37:45.332Z,2.38
2022-11-24T22:40:47.943Z,2.39
2022-11-24T22:43:52.143Z,2.33
2022-11-24T22:46:54.534Z,2.33
2022-11-24T22:49:58.047Z,2.41
2022-11-24T22:53:00.423Z,2.26
2022-11-24T22:56:03.874Z,2.07
2022-11-24T22:59:07.878Z,1.98
2022-11-24T23:02:10.289Z,1.93
2022-11-24T23:05:16.738Z,1.86
2022-11-24T23:08:21.831Z,1.84
2022-11-24T23:11:31.656Z,1.71
2022-11-24T23:14:36.849Z,1.74
2022-11-24T23:17:39.524Z,1.69
2022-11-24T23:20:41.919Z,1.61
2022-11-24T23:23:44.925Z,1.55
2022-11-24T23:26:47.347Z,1.57
2022-11-24T23:29:51.556Z,1.57
2022-11-24T23:32:55.863Z,1.68
2022-11-24T23:36:01.085Z,1.75
2022-11-24T23:39:04.532Z,1.68
2022-11-24T23:42:06.986Z,1.55
2022-11-24T23:45:11.230Z,1.52
2022-11-24T23:48:13.636Z,1.52
2022-11-24T23:51:18.149Z,1.42
2022-11-24T23:54:21.338Z,1.32
2022-11-24T23:57:23.844Z,1.24
